sensor_id;sensor_type;location;lat;lon;timestamp;pressure;altitude;pressure_sealevel;temperature;humidity
80248;BME280;69560;52.206;21.018;2023-10-09T00:00:25;100937.67;;;7.34;43.45
80248;BME280;69560;52.206;21.018;2023-10-09T00:03:27;100933.21;;;7.33;43.34
80248;BME280;69560;52.206;21.018;2023-10-09T00:05:54;100927.50;;;7.33;43.38
80248;BME280;69560;52.206;21.018;2023-10-09T00:08:22;100922.39;;;7.31;43.44
80248;BME280;69560;52.206;21.018;2023-10-09T00:10:51;100918.40;;;7.28;43.42
80248;BME280;69560;52.206;21.018;2023-10-09T00:13:22;100919.30;;;7.27;43.51
80248;BME280;69560;52.206;21.018;2023-10-09T00:15:58;100916.20;;;7.27;43.64
80248;BME280;69560;52.206;21.018;2023-10-09T00:18:34;100917.43;;;7.28;43.63
80248;BME280;69560;52.206;21.018;2023-10-09T00:21:01;100916.52;;;7.27;43.71
80248;BME280;69560;52.206;21.018;2023-10-09T00:23:41;100923.54;;;7.27;43.78
80248;BME280;69560;52.206;21.018;2023-10-09T00:26:09;100923.66;;;7.24;43.68
80248;BME280;69560;52.206;21.018;2023-10-09T00:28:39;100919.91;;;7.21;43.80
80248;BME280;69560;52.206;21.018;2023-10-09T00:31:11;100911.67;;;7.22;43.87
80248;BME280;69560;52.206;21.018;2023-10-09T00:33:42;100905.20;;;7.24;44.10
80248;BME280;69560;52.206;21.018;2023-10-09T00:36:10;100899.09;;;7.26;44.08
80248;BME280;69560;52.206;21.018;2023-10-09T00:38:37;100906.45;;;7.27;44.01
80248;BME280;69560;52.206;21.018;2023-10-09T00:41:17;100901.81;;;7.27;44.12
80248;BME280;69560;52.206;21.018;2023-10-09T00:43:51;100898.85;;;7.30;44.23
80248;BME280;69560;52.206;21.018;2023-10-09T00:46:20;100881.63;;;7.31;44.22
80248;BME280;69560;52.206;21.018;2023-10-09T00:48:48;100878.33;;;7.31;44.15
80248;BME280;69560;52.206;21.018;2023-10-09T00:51:16;100881.77;;;7.31;44.20
80248;BME280;69560;52.206;21.018;2023-10-09T00:53:53;100880.08;;;7.30;44.24
80248;BME280;69560;52.206;21.018;2023-10-09T00:56:22;100876.42;;;7.31;44.27
80248;BME280;69560;52.206;21.018;2023-10-09T00:58:53;100875.77;;;7.30;44.33
80248;BME280;69560;52.206;21.018;2023-10-09T01:01:27;100873.63;;;7.30;44.35
80248;BME280;69560;52.206;21.018;2023-10-09T01:04:06;100871.84;;;7.29;44.37
80248;BME280;69560;52.206;21.018;2023-10-09T01:06:43;100870.38;;;7.30;44.51
80248;BME280;69560;52.206;21.018;2023-10-09T01:09:12;100870.61;;;7.28;44.50
80248;BME280;69560;52.206;21.018;2023-10-09T01:11:41;100874.61;;;7.27;44.57
80248;BME280;69560;52.206;21.018;2023-10-09T01:14:15;100871.23;;;7.28;44.60
80248;BME280;69560;52.206;21.018;2023-10-09T01:16:42;100858.02;;;7.30;44.72
80248;BME280;69560;52.206;21.018;2023-10-09T01:19:09;100851.02;;;7.33;44.72
80248;BME280;69560;52.206;21.018;2023-10-09T01:21:41;100854.91;;;7.33;44.87
80248;BME280;69560;52.206;21.018;2023-10-09T01:24:08;100858.74;;;7.34;44.91
80248;BME280;69560;52.206;21.018;2023-10-09T01:26:39;100851.88;;;7.33;44.84
80248;BME280;69560;52.206;21.018;2023-10-09T01:29:06;100837.40;;;7.33;44.96
80248;BME280;69560;52.206;21.018;2023-10-09T01:31:37;100831.46;;;7.34;44.96
80248;BME280;69560;52.206;21.018;2023-10-09T01:34:10;100837.70;;;7.36;45.01
80248;BME280;69560;52.206;21.018;2023-10-09T01:36:39;100828.17;;;7.37;44.96
80248;BME280;69560;52.206;21.018;2023-10-09T01:39:05;100828.86;;;7.36;44.83
80248;BME280;69560;52.206;21.018;2023-10-09T01:41:36;100831.55;;;7.31;44.91
80248;BME280;69560;52.206;21.018;2023-10-09T01:44:12;100835.52;;;7.26;44.91
80248;BME280;69560;52.206;21.018;2023-10-09T01:46:42;100835.56;;;7.23;44.97
80248;BME280;69560;52.206;21.018;2023-10-09T01:49:13;100832.23;;;7.21;45.03
80248;BME280;69560;52.206;21.018;2023-10-09T01:51:56;100823.64;;;7.19;45.15
80248;BME280;69560;52.206;21.018;2023-10-09T01:54:26;100828.00;;;7.16;45.16
80248;BME280;69560;52.206;21.018;2023-10-09T01:57:06;100831.75;;;7.11;45.26
80248;BME280;69560;52.206;21.018;2023-10-09T01:59:37;100830.14;;;7.11;45.45
80248;BME280;69560;52.206;21.018;2023-10-09T02:02:05;100826.20;;;7.11;45.47
80248;BME280;69560;52.206;21.018;2023-10-09T02:04:42;100820.47;;;7.09;45.49
80248;BME280;69560;52.206;21.018;2023-10-09T02:07:08;100823.19;;;7.09;45.58
80248;BME280;69560;52.206;21.018;2023-10-09T02:09:35;100823.27;;;7.05;45.41
80248;BME280;69560;52.206;21.018;2023-10-09T02:12:10;100824.50;;;6.96;45.32
80248;BME280;69560;52.206;21.018;2023-10-09T02:14:37;100824.75;;;6.93;45.49
80248;BME280;69560;52.206;21.018;2023-10-09T02:17:08;100829.58;;;6.91;45.62
80248;BME280;69560;52.206;21.018;2023-10-09T02:19:46;100818.06;;;6.91;45.81
80248;BME280;69560;52.206;21.018;2023-10-09T02:22:16;100806.97;;;6.92;45.88
80248;BME280;69560;52.206;21.018;2023-10-09T02:24:44;100815.20;;;6.92;45.89
80248;BME280;69560;52.206;21.018;2023-10-09T02:27:18;100824.91;;;6.91;45.94
80248;BME280;69560;52.206;21.018;2023-10-09T02:30:04;100818.14;;;6.89;45.96
80248;BME280;69560;52.206;21.018;2023-10-09T02:32:42;100811.55;;;6.88;45.98
80248;BME280;69560;52.206;21.018;2023-10-09T02:35:10;100811.27;;;6.87;45.95
80248;BME280;69560;52.206;21.018;2023-10-09T02:37:54;100813.14;;;6.87;46.06
80248;BME280;69560;52.206;21.018;2023-10-09T02:40:20;100810.81;;;6.84;46.07
80248;BME280;69560;52.206;21.018;2023-10-09T02:42:54;100808.09;;;6.81;46.02
80248;BME280;69560;52.206;21.018;2023-10-09T02:45:20;100811.83;;;6.77;46.09
80248;BME280;69560;52.206;21.018;2023-10-09T02:47:55;100820.48;;;6.74;46.15
80248;BME280;69560;52.206;21.018;2023-10-09T02:50:22;100813.48;;;6.71;46.21
80248;BME280;69560;52.206;21.018;2023-10-09T02:52:49;100809.58;;;6.66;46.20
80248;BME280;69560;52.206;21.018;2023-10-09T02:55:26;100800.91;;;6.63;46.34
80248;BME280;69560;52.206;21.018;2023-10-09T02:57:54;100803.87;;;6.62;46.60
80248;BME280;69560;52.206;21.018;2023-10-09T03:00:34;100806.33;;;6.63;46.60
80248;BME280;69560;52.206;21.018;2023-10-09T03:03:05;100794.18;;;6.60;46.67
80248;BME280;69560;52.206;21.018;2023-10-09T03:05:35;100792.78;;;6.57;46.64
80248;BME280;69560;52.206;21.018;2023-10-09T03:08:08;100792.54;;;6.57;46.76
80248;BME280;69560;52.206;21.018;2023-10-09T03:10:38;100801.41;;;6.57;46.78
80248;BME280;69560;52.206;21.018;2023-10-09T03:13:05;100805.35;;;6.49;46.74
80248;BME280;69560;52.206;21.018;2023-10-09T03:15:34;100798.99;;;6.48;46.90
80248;BME280;69560;52.206;21.018;2023-10-09T03:18:02;100803.67;;;6.47;46.97
80248;BME280;69560;52.206;21.018;2023-10-09T03:20:31;100796.92;;;6.46;47.03
80248;BME280;69560;52.206;21.018;2023-10-09T03:22:57;100790.48;;;6.43;47.09
80248;BME280;69560;52.206;21.018;2023-10-09T03:25:27;100789.01;;;6.38;47.05
80248;BME280;69560;52.206;21.018;2023-10-09T03:27:54;100795.75;;;6.35;47.25
80248;BME280;69560;52.206;21.018;2023-10-09T03:30:23;100789.87;;;6.36;47.33
80248;BME280;69560;52.206;21.018;2023-10-09T03:32:51;100797.14;;;6.36;47.36
80248;BME280;69560;52.206;21.018;2023-10-09T03:35:21;100801.13;;;6.34;47.47
80248;BME280;69560;52.206;21.018;2023-10-09T03:37:56;100803.23;;;6.34;47.45
80248;BME280;69560;52.206;21.018;2023-10-09T03:40:44;100800.61;;;6.37;47.67
80248;BME280;69560;52.206;21.018;2023-10-09T03:43:14;100788.09;;;6.38;47.71
80248;BME280;69560;52.206;21.018;2023-10-09T03:45:41;100785.42;;;6.40;47.70
80248;BME280;69560;52.206;21.018;2023-10-09T03:48:20;100784.52;;;6.41;47.64
80248;BME280;69560;52.206;21.018;2023-10-09T03:50:59;100781.86;;;6.42;47.79
80248;BME280;69560;52.206;21.018;2023-10-09T03:53:38;100782.34;;;6.42;47.79
80248;BME280;69560;52.206;21.018;2023-10-09T03:56:09;100785.65;;;6.42;47.91
80248;BME280;69560;52.206;21.018;2023-10-09T03:58:42;100780.73;;;6.42;47.91
80248;BME280;69560;52.206;21.018;2023-10-09T04:01:21;100778.63;;;6.41;48.03
80248;BME280;69560;52.206;21.018;2023-10-09T04:03:55;100778.55;;;6.43;48.01
80248;BME280;69560;52.206;21.018;2023-10-09T04:06:22;100781.17;;;6.46;48.01
80248;BME280;69560;52.206;21.018;2023-10-09T04:08:49;100781.84;;;6.49;48.23
80248;BME280;69560;52.206;21.018;2023-10-09T04:11:17;100784.77;;;6.49;48.14
80248;BME280;69560;52.206;21.018;2023-10-09T04:13:45;100788.55;;;6.51;48.17
80248;BME280;69560;52.206;21.018;2023-10-09T04:16:15;100794.33;;;6.51;48.14
80248;BME280;69560;52.206;21.018;2023-10-09T04:19:00;100788.39;;;6.52;48.20
80248;BME280;69560;52.206;21.018;2023-10-09T04:21:33;100780.76;;;6.54;48.21
80248;BME280;69560;52.206;21.018;2023-10-09T04:24:07;100775.98;;;6.57;48.19
80248;BME280;69560;52.206;21.018;2023-10-09T04:26:44;100780.60;;;6.57;48.30
80248;BME280;69560;52.206;21.018;2023-10-09T04:29:15;100776.12;;;6.60;48.36
80248;BME280;69560;52.206;21.018;2023-10-09T04:31:56;100765.21;;;6.63;48.41
80248;BME280;69560;52.206;21.018;2023-10-09T04:34:23;100759.81;;;6.67;48.31
80248;BME280;69560;52.206;21.018;2023-10-09T04:37:01;100757.93;;;6.69;48.26
80248;BME280;69560;52.206;21.018;2023-10-09T04:39:43;100745.34;;;6.71;48.42
80248;BME280;69560;52.206;21.018;2023-10-09T04:42:14;100743.29;;;6.74;48.29
80248;BME280;69560;52.206;21.018;2023-10-09T04:44:50;100742.41;;;6.76;48.19
80248;BME280;69560;52.206;21.018;2023-10-09T04:47:35;100739.25;;;6.76;48.22
80248;BME280;69560;52.206;21.018;2023-10-09T04:50:09;100734.61;;;6.78;48.17
80248;BME280;69560;52.206;21.018;2023-10-09T04:52:45;100728.81;;;6.79;48.20
80248;BME280;69560;52.206;21.018;2023-10-09T04:55:11;100729.99;;;6.81;48.13
80248;BME280;69560;52.206;21.018;2023-10-09T04:57:47;100729.02;;;6.80;48.07
80248;BME280;69560;52.206;21.018;2023-10-09T05:00:27;100719.59;;;6.74;48.08
80248;BME280;69560;52.206;21.018;2023-10-09T05:02:58;100721.71;;;6.73;48.02
80248;BME280;69560;52.206;21.018;2023-10-09T05:05:31;100715.05;;;6.71;48.08
80248;BME280;69560;52.206;21.018;2023-10-09T05:08:16;100710.80;;;6.70;48.14
80248;BME280;69560;52.206;21.018;2023-10-09T05:10:52;100702.60;;;6.70;48.12
80248;BME280;69560;52.206;21.018;2023-10-09T05:18:42;100694.19;;;6.70;48.28
80248;BME280;69560;52.206;21.018;2023-10-09T05:21:11;100684.33;;;6.72;48.37
80248;BME280;69560;52.206;21.018;2023-10-09T05:24:04;100672.88;;;6.73;48.34
80248;BME280;69560;52.206;21.018;2023-10-09T05:26:43;100672.47;;;6.70;48.29
80248;BME280;69560;52.206;21.018;2023-10-09T05:29:20;100676.95;;;6.68;48.27
80248;BME280;69560;52.206;21.018;2023-10-09T05:32:04;100678.06;;;6.68;48.31
80248;BME280;69560;52.206;21.018;2023-10-09T05:34:54;100685.73;;;6.68;48.51
80248;BME280;69560;52.206;21.018;2023-10-09T05:37:31;100689.84;;;6.70;48.48
80248;BME280;69560;52.206;21.018;2023-10-09T05:40:10;100687.96;;;6.70;48.35
80248;BME280;69560;52.206;21.018;2023-10-09T05:42:42;100681.86;;;6.71;48.39
80248;BME280;69560;52.206;21.018;2023-10-09T05:45:10;100686.09;;;6.70;48.37
80248;BME280;69560;52.206;21.018;2023-10-09T05:47:43;100690.48;;;6.75;48.73
80248;BME280;69560;52.206;21.018;2023-10-09T05:50:27;100684.19;;;6.81;48.73
80248;BME280;69560;52.206;21.018;2023-10-09T05:52:57;100678.95;;;6.88;48.62
80248;BME280;69560;52.206;21.018;2023-10-09T05:55:33;100684.48;;;6.94;48.73
80248;BME280;69560;52.206;21.018;2023-10-09T05:58:31;100677.79;;;7.02;48.73
80248;BME280;69560;52.206;21.018;2023-10-09T06:01:16;100673.03;;;7.04;48.47
80248;BME280;69560;52.206;21.018;2023-10-09T06:04:05;100666.72;;;7.08;48.58
80248;BME280;69560;52.206;21.018;2023-10-09T06:06:45;100666.52;;;7.14;48.52
80248;BME280;69560;52.206;21.018;2023-10-09T06:09:13;100667.13;;;7.18;48.47
80248;BME280;69560;52.206;21.018;2023-10-09T06:11:46;100661.80;;;7.19;48.32
80248;BME280;69560;52.206;21.018;2023-10-09T06:14:22;100662.27;;;7.23;48.29
80248;BME280;69560;52.206;21.018;2023-10-09T06:17:12;100662.39;;;7.24;48.23
80248;BME280;69560;52.206;21.018;2023-10-09T06:19:52;100663.34;;;7.26;48.30
80248;BME280;69560;52.206;21.018;2023-10-09T06:22:25;100666.02;;;7.30;48.33
80248;BME280;69560;52.206;21.018;2023-10-09T06:25:10;100663.79;;;7.33;48.19
80248;BME280;69560;52.206;21.018;2023-10-09T06:27:37;100669.16;;;7.40;48.31
80248;BME280;69560;52.206;21.018;2023-10-09T06:30:19;100667.52;;;7.44;48.34
80248;BME280;69560;52.206;21.018;2023-10-09T06:32:46;100672.88;;;7.48;48.35
80248;BME280;69560;52.206;21.018;2023-10-09T06:35:21;100670.48;;;7.49;48.16
80248;BME280;69560;52.206;21.018;2023-10-09T06:38:00;100671.11;;;7.51;48.25
80248;BME280;69560;52.206;21.018;2023-10-09T06:40:34;100674.46;;;7.56;48.21
80248;BME280;69560;52.206;21.018;2023-10-09T06:43:19;100672.73;;;7.59;48.11
80248;BME280;69560;52.206;21.018;2023-10-09T06:45:56;100671.48;;;7.60;48.03
80248;BME280;69560;52.206;21.018;2023-10-09T06:48:41;100672.02;;;7.61;47.87
80248;BME280;69560;52.206;21.018;2023-10-09T06:51:14;100668.86;;;7.60;47.88
80248;BME280;69560;52.206;21.018;2023-10-09T06:53:55;100667.09;;;7.59;47.64
80248;BME280;69560;52.206;21.018;2023-10-09T06:56:26;100670.42;;;7.60;47.76
80248;BME280;69560;52.206;21.018;2023-10-09T06:58:59;100664.45;;;7.65;47.89
80248;BME280;69560;52.206;21.018;2023-10-09T07:01:45;100668.98;;;7.70;47.98
80248;BME280;69560;52.206;21.018;2023-10-09T07:04:16;100666.98;;;7.76;48.00
80248;BME280;69560;52.206;21.018;2023-10-09T07:06:46;100664.73;;;7.83;48.02
80248;BME280;69560;52.206;21.018;2023-10-09T07:09:13;100670.13;;;7.92;47.95
80248;BME280;69560;52.206;21.018;2023-10-09T07:11:44;100671.02;;;7.96;47.63
80248;BME280;69560;52.206;21.018;2023-10-09T07:14:19;100672.16;;;7.99;47.58
80248;BME280;69560;52.206;21.018;2023-10-09T07:16:59;100673.81;;;8.03;47.65
80248;BME280;69560;52.206;21.018;2023-10-09T07:19:27;100672.33;;;8.10;47.68
80248;BME280;69560;52.206;21.018;2023-10-09T07:22:06;100677.85;;;8.21;47.52
80248;BME280;69560;52.206;21.018;2023-10-09T07:24:43;100677.32;;;8.29;47.39
80248;BME280;69560;52.206;21.018;2023-10-09T07:27:10;100688.84;;;8.36;47.38
80248;BME280;69560;52.206;21.018;2023-10-09T07:29:40;100686.01;;;8.45;47.29
80248;BME280;69560;52.206;21.018;2023-10-09T07:32:19;100681.98;;;8.56;47.27
80248;BME280;69560;52.206;21.018;2023-10-09T07:34:49;100678.18;;;8.68;47.10
80248;BME280;69560;52.206;21.018;2023-10-09T07:37:28;100681.54;;;8.81;47.16
80248;BME280;69560;52.206;21.018;2023-10-09T07:39:57;100678.60;;;8.95;47.03
80248;BME280;69560;52.206;21.018;2023-10-09T07:42:27;100677.02;;;9.04;46.83
80248;BME280;69560;52.206;21.018;2023-10-09T07:45:10;100667.70;;;9.12;46.44
80248;BME280;69560;52.206;21.018;2023-10-09T07:47:47;100666.64;;;9.18;46.31
80248;BME280;69560;52.206;21.018;2023-10-09T07:50:26;100670.58;;;9.23;46.18
80248;BME280;69560;52.206;21.018;2023-10-09T07:53:05;100676.85;;;9.32;46.16
80248;BME280;69560;52.206;21.018;2023-10-09T07:55:41;100673.85;;;9.42;46.18
80248;BME280;69560;52.206;21.018;2023-10-09T07:58:15;100679.00;;;9.52;46.08
80248;BME280;69560;52.206;21.018;2023-10-09T08:00:42;100675.58;;;9.63;45.95
80248;BME280;69560;52.206;21.018;2023-10-09T08:03:27;100668.96;;;9.71;45.75
80248;BME280;69560;52.206;21.018;2023-10-09T08:05:59;100664.54;;;9.80;45.54
80248;BME280;69560;52.206;21.018;2023-10-09T08:08:44;100661.02;;;9.95;45.65
80248;BME280;69560;52.206;21.018;2023-10-09T08:11:30;100655.10;;;10.09;45.50
80248;BME280;69560;52.206;21.018;2023-10-09T08:14:13;100650.88;;;10.22;45.29
80248;BME280;69560;52.206;21.018;2023-10-09T08:16:58;100642.05;;;10.30;44.97
80248;BME280;69560;52.206;21.018;2023-10-09T08:19:48;100639.00;;;10.41;44.78
80248;BME280;69560;52.206;21.018;2023-10-09T08:22:24;100638.04;;;10.49;44.63
80248;BME280;69560;52.206;21.018;2023-10-09T08:24:51;100634.25;;;10.53;44.30
80248;BME280;69560;52.206;21.018;2023-10-09T08:27:28;100636.19;;;10.48;44.06
80248;BME280;69560;52.206;21.018;2023-10-09T08:30:03;100640.10;;;10.46;44.08
80248;BME280;69560;52.206;21.018;2023-10-09T08:32:39;100637.68;;;10.51;44.18
80248;BME280;69560;52.206;21.018;2023-10-09T08:35:07;100643.35;;;10.56;43.96
80248;BME280;69560;52.206;21.018;2023-10-09T08:37:54;100641.48;;;10.61;43.96
80248;BME280;69560;52.206;21.018;2023-10-09T08:40:30;100640.89;;;10.68;43.83
80248;BME280;69560;52.206;21.018;2023-10-09T08:43:08;100639.56;;;10.75;43.85
80248;BME280;69560;52.206;21.018;2023-10-09T08:45:37;100635.80;;;10.86;43.78
80248;BME280;69560;52.206;21.018;2023-10-09T08:48:07;100629.05;;;10.96;43.67
80248;BME280;69560;52.206;21.018;2023-10-09T08:50:35;100629.00;;;11.04;43.70
80248;BME280;69560;52.206;21.018;2023-10-09T08:53:03;100624.59;;;11.12;43.61
80248;BME280;69560;52.206;21.018;2023-10-09T08:55:29;100631.86;;;11.21;43.55
80248;BME280;69560;52.206;21.018;2023-10-09T08:57:56;100636.59;;;11.23;43.39
80248;BME280;69560;52.206;21.018;2023-10-09T09:00:24;100632.95;;;11.27;43.24
80248;BME280;69560;52.206;21.018;2023-10-09T09:02:52;100625.67;;;11.28;43.12
80248;BME280;69560;52.206;21.018;2023-10-09T09:05:20;100619.89;;;11.32;43.01
80248;BME280;69560;52.206;21.018;2023-10-09T09:07:47;100623.54;;;11.36;43.00
80248;BME280;69560;52.206;21.018;2023-10-09T09:10:14;100613.48;;;11.40;42.89
80248;BME280;69560;52.206;21.018;2023-10-09T09:12:44;100605.56;;;11.49;42.98
80248;BME280;69560;52.206;21.018;2023-10-09T09:15:14;100603.98;;;11.64;43.06
80248;BME280;69560;52.206;21.018;2023-10-09T09:17:47;100598.66;;;11.83;43.02
80248;BME280;69560;52.206;21.018;2023-10-09T09:22:53;100585.48;;;12.07;42.48
80248;BME280;69560;52.206;21.018;2023-10-09T09:25:23;100577.70;;;12.15;42.08
80248;BME280;69560;52.206;21.018;2023-10-09T09:27:51;100573.91;;;12.22;41.51
80248;BME280;69560;52.206;21.018;2023-10-09T09:30:23;100572.05;;;12.30;41.10
80248;BME280;69560;52.206;21.018;2023-10-09T09:32:50;100571.11;;;12.39;41.00
80248;BME280;69560;52.206;21.018;2023-10-09T09:35:38;100573.96;;;12.43;40.49
80248;BME280;69560;52.206;21.018;2023-10-09T09:38:05;100576.39;;;12.41;40.38
80248;BME280;69560;52.206;21.018;2023-10-09T09:40:32;100573.05;;;12.45;40.27
80248;BME280;69560;52.206;21.018;2023-10-09T09:43:08;100573.15;;;12.56;40.40
80248;BME280;69560;52.206;21.018;2023-10-09T09:45:48;100565.34;;;12.69;40.37
80248;BME280;69560;52.206;21.018;2023-10-09T09:48:16;100560.89;;;12.85;40.35
80248;BME280;69560;52.206;21.018;2023-10-09T09:50:43;100560.50;;;13.01;40.26
80248;BME280;69560;52.206;21.018;2023-10-09T09:53:14;100550.48;;;13.17;40.15
80248;BME280;69560;52.206;21.018;2023-10-09T09:55:52;100545.30;;;13.29;40.10
80248;BME280;69560;52.206;21.018;2023-10-09T09:58:24;100548.02;;;13.43;39.93
80248;BME280;69560;52.206;21.018;2023-10-09T10:00:58;100540.79;;;13.56;39.67
80248;BME280;69560;52.206;21.018;2023-10-09T10:03:31;100538.86;;;13.76;39.67
80248;BME280;69560;52.206;21.018;2023-10-09T10:06:00;100536.20;;;13.88;39.38
80248;BME280;69560;52.206;21.018;2023-10-09T10:08:36;100534.99;;;13.87;38.98
80248;BME280;69560;52.206;21.018;2023-10-09T10:11:05;100535.67;;;13.82;38.95
80248;BME280;69560;52.206;21.018;2023-10-09T10:16:16;100530.58;;;13.62;38.13
80248;BME280;69560;52.206;21.018;2023-10-09T10:19:02;100523.77;;;13.53;38.11
80248;BME280;69560;52.206;21.018;2023-10-09T10:21:52;100518.40;;;13.42;38.03
80248;BME280;69560;52.206;21.018;2023-10-09T10:29:35;100502.15;;;13.28;38.16
80248;BME280;69560;52.206;21.018;2023-10-09T10:32:05;100493.40;;;13.28;38.28
80248;BME280;69560;52.206;21.018;2023-10-09T10:37:38;100490.83;;;13.26;38.04
80248;BME280;69560;52.206;21.018;2023-10-09T10:40:27;100490.59;;;13.21;37.97
80248;BME280;69560;52.206;21.018;2023-10-09T10:43:07;100489.27;;;13.10;37.67
80248;BME280;69560;52.206;21.018;2023-10-09T10:46:15;100486.94;;;12.98;37.61
80248;BME280;69560;52.206;21.018;2023-10-09T10:49:05;100487.50;;;12.93;37.65
80248;BME280;69560;52.206;21.018;2023-10-09T10:51:37;100490.48;;;12.90;37.78
80248;BME280;69560;52.206;21.018;2023-10-09T10:54:05;100484.30;;;12.86;37.65
80248;BME280;69560;52.206;21.018;2023-10-09T10:56:51;100480.67;;;12.82;37.72
80248;BME280;69560;52.206;21.018;2023-10-09T10:59:18;100481.45;;;12.75;37.61
80248;BME280;69560;52.206;21.018;2023-10-09T11:01:53;100479.07;;;12.69;37.62
80248;BME280;69560;52.206;21.018;2023-10-09T11:04:21;100476.38;;;12.65;37.57
80248;BME280;69560;52.206;21.018;2023-10-09T11:06:51;100474.02;;;12.63;37.77
80248;BME280;69560;52.206;21.018;2023-10-09T11:09:17;100468.95;;;12.62;37.87
80248;BME280;69560;52.206;21.018;2023-10-09T11:11:48;100473.69;;;12.61;37.89
80248;BME280;69560;52.206;21.018;2023-10-09T11:14:21;100477.69;;;12.58;37.75
80248;BME280;69560;52.206;21.018;2023-10-09T11:16:50;100466.67;;;12.54;37.89
80248;BME280;69560;52.206;21.018;2023-10-09T11:19:21;100466.52;;;12.49;37.90
80248;BME280;69560;52.206;21.018;2023-10-09T11:21:55;100458.60;;;12.46;37.89
80248;BME280;69560;52.206;21.018;2023-10-09T11:24:34;100456.37;;;12.40;37.89
80248;BME280;69560;52.206;21.018;2023-10-09T11:27:02;100457.91;;;12.32;37.90
80248;BME280;69560;52.206;21.018;2023-10-09T11:29:36;100457.19;;;12.26;38.13
80248;BME280;69560;52.206;21.018;2023-10-09T11:32:14;100459.88;;;12.20;38.34
80248;BME280;69560;52.206;21.018;2023-10-09T11:34:46;100459.92;;;12.13;38.14
80248;BME280;69560;52.206;21.018;2023-10-09T11:37:27;100459.15;;;12.05;38.18
80248;BME280;69560;52.206;21.018;2023-10-09T11:39:58;100453.86;;;12.02;38.24
80248;BME280;69560;52.206;21.018;2023-10-09T11:42:27;100446.08;;;12.03;38.58
80248;BME280;69560;52.206;21.018;2023-10-09T11:45:06;100442.59;;;12.03;38.62
80248;BME280;69560;52.206;21.018;2023-10-09T11:47:51;100442.08;;;12.01;38.69
80248;BME280;69560;52.206;21.018;2023-10-09T11:50:45;100437.34;;;11.98;38.86
80248;BME280;69560;52.206;21.018;2023-10-09T11:53:18;100428.05;;;11.98;39.04
80248;BME280;69560;52.206;21.018;2023-10-09T11:55:48;100431.10;;;12.00;39.30
80248;BME280;69560;52.206;21.018;2023-10-09T11:58:16;100430.98;;;12.02;39.48
80248;BME280;69560;52.206;21.018;2023-10-09T12:00:56;100426.61;;;12.02;39.66
80248;BME280;69560;52.206;21.018;2023-10-09T12:03:26;100424.77;;;12.02;39.91
80248;BME280;69560;52.206;21.018;2023-10-09T12:05:57;100429.86;;;12.02;40.18
80248;BME280;69560;52.206;21.018;2023-10-09T12:08:24;100425.52;;;12.04;40.39
80248;BME280;69560;52.206;21.018;2023-10-09T12:10:55;100420.48;;;12.02;40.66
80248;BME280;69560;52.206;21.018;2023-10-09T12:13:22;100419.80;;;12.03;40.81
80248;BME280;69560;52.206;21.018;2023-10-09T12:15:52;100423.06;;;12.04;41.05
80248;BME280;69560;52.206;21.018;2023-10-09T12:18:20;100421.73;;;12.05;41.31
80248;BME280;69560;52.206;21.018;2023-10-09T12:20:48;100419.14;;;12.07;41.52
80248;BME280;69560;52.206;21.018;2023-10-09T12:23:19;100414.71;;;12.09;41.64
80248;BME280;69560;52.206;21.018;2023-10-09T12:25:50;100413.11;;;12.08;41.87
80248;BME280;69560;52.206;21.018;2023-10-09T12:28:17;100409.14;;;12.07;42.10
80248;BME280;69560;52.206;21.018;2023-10-09T12:30:47;100402.46;;;12.07;42.25
80248;BME280;69560;52.206;21.018;2023-10-09T12:33:18;100406.55;;;12.04;42.36
80248;BME280;69560;52.206;21.018;2023-10-09T12:35:54;100407.49;;;12.03;42.47
80248;BME280;69560;52.206;21.018;2023-10-09T12:38:29;100414.02;;;12.04;42.66
80248;BME280;69560;52.206;21.018;2023-10-09T12:41:05;100421.39;;;12.03;42.60
80248;BME280;69560;52.206;21.018;2023-10-09T12:43:46;100420.94;;;12.00;42.82
80248;BME280;69560;52.206;21.018;2023-10-09T12:46:13;100417.79;;;11.97;42.88
80248;BME280;69560;52.206;21.018;2023-10-09T12:48:45;100412.42;;;11.94;43.03
80248;BME280;69560;52.206;21.018;2023-10-09T12:51:15;100414.08;;;11.93;43.16
80248;BME280;69560;52.206;21.018;2023-10-09T12:53:46;100415.51;;;11.94;43.21
80248;BME280;69560;52.206;21.018;2023-10-09T12:56:18;100413.69;;;11.93;43.42
80248;BME280;69560;52.206;21.018;2023-10-09T12:58:44;100413.75;;;11.94;43.48
80248;BME280;69560;52.206;21.018;2023-10-09T13:01:18;100413.65;;;11.97;43.56
80248;BME280;69560;52.206;21.018;2023-10-09T13:03:46;100418.27;;;11.97;43.69
80248;BME280;69560;52.206;21.018;2023-10-09T13:06:15;100411.13;;;11.98;43.79
80248;BME280;69560;52.206;21.018;2023-10-09T13:08:50;100405.86;;;11.97;43.83
80248;BME280;69560;52.206;21.018;2023-10-09T13:11:18;100408.45;;;11.94;43.92
80248;BME280;69560;52.206;21.018;2023-10-09T13:13:45;100408.71;;;11.91;43.94
80248;BME280;69560;52.206;21.018;2023-10-09T13:16:20;100403.69;;;11.90;44.09
80248;BME280;69560;52.206;21.018;2023-10-09T13:18:52;100406.21;;;11.89;44.12
80248;BME280;69560;52.206;21.018;2023-10-09T13:21:25;100402.95;;;11.88;44.30
80248;BME280;69560;52.206;21.018;2023-10-09T13:23:53;100400.94;;;11.90;44.36
80248;BME280;69560;52.206;21.018;2023-10-09T13:26:24;100395.54;;;11.91;44.53
80248;BME280;69560;52.206;21.018;2023-10-09T13:28:55;100388.23;;;11.91;44.45
80248;BME280;69560;52.206;21.018;2023-10-09T13:31:24;100387.02;;;11.90;44.50
80248;BME280;69560;52.206;21.018;2023-10-09T13:33:54;100387.54;;;11.88;44.48
80248;BME280;69560;52.206;21.018;2023-10-09T13:36:28;100378.17;;;11.83;44.50